sensor_id;sensor_type;location;lat;lon;timestamp;pressure;altitude;pressure_sealevel;temperature;humidity
65394;BME280;52002;49.760;6.512;2023-08-30T00:00:38;99395.90;;;13.85;75.46
65394;BME280;52002;49.760;6.512;2023-08-30T00:03:04;99393.84;;;13.86;75.61
65394;BME280;52002;49.760;6.512;2023-08-30T00:05:29;99389.14;;;13.87;75.52
65394;BME280;52002;49.760;6.512;2023-08-30T00:07:54;99386.08;;;13.84;75.26
65394;BME280;52002;49.760;6.512;2023-08-30T00:10:20;99381.16;;;13.78;75.33
65394;BME280;52002;49.760;6.512;2023-08-30T00:12:46;99381.83;;;13.78;75.66
65394;BME280;52002;49.760;6.512;2023-08-30T00:15:11;99387.30;;;13.79;75.87
65394;BME280;52002;49.760;6.512;2023-08-30T00:17:36;99385.23;;;13.80;75.97
65394;BME280;52002;49.760;6.512;2023-08-30T00:20:02;99391.45;;;13.80;75.75
65394;BME280;52002;49.760;6.512;2023-08-30T00:22:28;99393.33;;;13.81;75.90
65394;BME280;52002;49.760;6.512;2023-08-30T00:24:53;99391.07;;;13.84;76.20
65394;BME280;52002;49.760;6.512;2023-08-30T00:27:19;99392.20;;;13.88;76.35
65394;BME280;52002;49.760;6.512;2023-08-30T00:29:46;99388.55;;;13.92;76.32
65394;BME280;52002;49.760;6.512;2023-08-30T00:32:11;99391.52;;;13.95;76.24
65394;BME280;52002;49.760;6.512;2023-08-30T00:34:37;99391.60;;;13.97;76.16
65394;BME280;52002;49.760;6.512;2023-08-30T00:37:02;99396.83;;;13.98;76.03
65394;BME280;52002;49.760;6.512;2023-08-30T00:39:28;99395.52;;;13.95;75.97
65394;BME280;52002;49.760;6.512;2023-08-30T00:41:53;99394.26;;;13.95;76.16
65394;BME280;52002;49.760;6.512;2023-08-30T00:44:18;99399.89;;;13.96;76.30
65394;BME280;52002;49.760;6.512;2023-08-30T00:46:44;99400.66;;;13.96;76.21
65394;BME280;52002;49.760;6.512;2023-08-30T00:49:10;99401.06;;;13.95;76.30
65394;BME280;52002;49.760;6.512;2023-08-30T00:51:35;99399.52;;;13.96;76.33
65394;BME280;52002;49.760;6.512;2023-08-30T00:54:01;99393.64;;;13.98;76.29
65394;BME280;52002;49.760;6.512;2023-08-30T00:56:27;99389.48;;;13.96;76.28
65394;BME280;52002;49.760;6.512;2023-08-30T00:58:53;99386.86;;;13.98;76.50
65394;BME280;52002;49.760;6.512;2023-08-30T01:01:19;99385.87;;;14.01;76.59
65394;BME280;52002;49.760;6.512;2023-08-30T01:03:45;99379.74;;;14.05;76.59
65394;BME280;52002;49.760;6.512;2023-08-30T01:06:10;99383.87;;;14.05;76.37
65394;BME280;52002;49.760;6.512;2023-08-30T01:08:36;99382.39;;;14.01;76.55
65394;BME280;52002;49.760;6.512;2023-08-30T01:11:18;99383.50;;;14.00;76.61
65394;BME280;52002;49.760;6.512;2023-08-30T01:13:51;99383.30;;;14.02;76.74
65394;BME280;52002;49.760;6.512;2023-08-30T01:16:18;99384.94;;;14.00;76.63
65394;BME280;52002;49.760;6.512;2023-08-30T01:18:47;99383.34;;;14.00;76.70
65394;BME280;52002;49.760;6.512;2023-08-30T01:21:26;99373.71;;;14.03;76.79
65394;BME280;52002;49.760;6.512;2023-08-30T01:23:59;99367.56;;;14.07;76.95
65394;BME280;52002;49.760;6.512;2023-08-30T01:29:16;99367.41;;;14.09;76.78
65394;BME280;52002;49.760;6.512;2023-08-30T01:31:45;99375.44;;;14.10;76.85
65394;BME280;52002;49.760;6.512;2023-08-30T01:34:12;99372.33;;;14.09;76.94
65394;BME280;52002;49.760;6.512;2023-08-30T01:36:40;99372.13;;;14.09;77.15
65394;BME280;52002;49.760;6.512;2023-08-30T01:39:09;99373.66;;;14.09;77.31
65394;BME280;52002;49.760;6.512;2023-08-30T01:41:36;99371.70;;;14.13;77.38
65394;BME280;52002;49.760;6.512;2023-08-30T01:44:03;99368.58;;;14.16;77.37
65394;BME280;52002;49.760;6.512;2023-08-30T01:46:32;99363.67;;;14.18;77.37
65394;BME280;52002;49.760;6.512;2023-08-30T01:48:59;99361.02;;;14.16;77.21
65394;BME280;52002;49.760;6.512;2023-08-30T01:51:25;99359.27;;;14.16;77.22
65394;BME280;52002;49.760;6.512;2023-08-30T01:53:52;99358.20;;;14.15;77.29
65394;BME280;52002;49.760;6.512;2023-08-30T01:56:18;99359.48;;;14.14;77.17
65394;BME280;52002;49.760;6.512;2023-08-30T01:58:43;99360.94;;;14.10;77.06
65394;BME280;52002;49.760;6.512;2023-08-30T02:01:09;99355.81;;;14.07;77.16
65394;BME280;52002;49.760;6.512;2023-08-30T02:03:34;99356.63;;;14.07;77.20
65394;BME280;52002;49.760;6.512;2023-08-30T02:06:13;99361.09;;;14.07;77.30
65394;BME280;52002;49.760;6.512;2023-08-30T02:08:53;99357.48;;;14.09;77.38
65394;BME280;52002;49.760;6.512;2023-08-30T02:11:23;99359.30;;;14.10;77.27
65394;BME280;52002;49.760;6.512;2023-08-30T02:13:53;99354.96;;;14.10;77.24
65394;BME280;52002;49.760;6.512;2023-08-30T02:16:20;99349.78;;;14.07;77.12
65394;BME280;52002;49.760;6.512;2023-08-30T02:18:47;99349.38;;;14.08;77.34
65394;BME280;52002;49.760;6.512;2023-08-30T02:21:13;99349.68;;;14.08;77.33
65394;BME280;52002;49.760;6.512;2023-08-30T02:23:38;99346.59;;;14.08;77.39
65394;BME280;52002;49.760;6.512;2023-08-30T02:26:03;99344.44;;;14.07;77.39
65394;BME280;52002;49.760;6.512;2023-08-30T02:28:29;99348.23;;;14.06;77.46
65394;BME280;52002;49.760;6.512;2023-08-30T02:30:54;99342.95;;;14.04;77.34
65394;BME280;52002;49.760;6.512;2023-08-30T02:33:20;99342.79;;;14.01;77.47
65394;BME280;52002;49.760;6.512;2023-08-30T02:35:45;99336.83;;;14.02;77.78
65394;BME280;52002;49.760;6.512;2023-08-30T02:38:10;99333.52;;;14.02;77.74
65394;BME280;52002;49.760;6.512;2023-08-30T02:40:36;99333.50;;;14.01;77.74
65394;BME280;52002;49.760;6.512;2023-08-30T02:43:01;99332.95;;;14.02;77.98
65394;BME280;52002;49.760;6.512;2023-08-30T02:45:26;99335.83;;;14.02;77.89
65394;BME280;52002;49.760;6.512;2023-08-30T02:47:55;99335.34;;;14.02;77.91
65394;BME280;52002;49.760;6.512;2023-08-30T02:50:21;99333.46;;;14.01;77.92
65394;BME280;52002;49.760;6.512;2023-08-30T02:52:47;99335.17;;;13.97;77.68
65394;BME280;52002;49.760;6.512;2023-08-30T02:55:12;99334.16;;;13.97;77.83
65394;BME280;52002;49.760;6.512;2023-08-30T02:57:37;99337.19;;;13.99;78.08
65394;BME280;52002;49.760;6.512;2023-08-30T03:00:03;99334.83;;;14.00;78.07
65394;BME280;52002;49.760;6.512;2023-08-30T03:02:31;99336.29;;;14.02;78.20
65394;BME280;52002;49.760;6.512;2023-08-30T03:04:58;99336.16;;;14.06;78.37
65394;BME280;52002;49.760;6.512;2023-08-30T03:07:24;99332.91;;;14.08;78.16
65394;BME280;52002;49.760;6.512;2023-08-30T03:09:52;99330.41;;;14.11;78.09
65394;BME280;52002;49.760;6.512;2023-08-30T03:12:18;99326.85;;;14.10;77.96
65394;BME280;52002;49.760;6.512;2023-08-30T03:14:43;99328.00;;;14.08;77.91
65394;BME280;52002;49.760;6.512;2023-08-30T03:17:08;99333.34;;;14.09;78.02
65394;BME280;52002;49.760;6.512;2023-08-30T03:19:34;99328.73;;;14.10;77.89
65394;BME280;52002;49.760;6.512;2023-08-30T03:21:59;99329.64;;;14.09;77.76
65394;BME280;52002;49.760;6.512;2023-08-30T03:24:25;99323.13;;;14.08;77.71
65394;BME280;52002;49.760;6.512;2023-08-30T03:26:51;99326.39;;;14.07;77.65
65394;BME280;52002;49.760;6.512;2023-08-30T03:29:16;99329.55;;;14.06;77.61
65394;BME280;52002;49.760;6.512;2023-08-30T03:31:42;99324.66;;;14.05;77.50
65394;BME280;52002;49.760;6.512;2023-08-30T03:34:09;99321.91;;;14.04;77.58
65394;BME280;52002;49.760;6.512;2023-08-30T03:36:34;99320.11;;;14.04;77.70
65394;BME280;52002;49.760;6.512;2023-08-30T03:39:00;99316.95;;;14.05;77.68
65394;BME280;52002;49.760;6.512;2023-08-30T03:41:25;99319.23;;;14.05;77.57
65394;BME280;52002;49.760;6.512;2023-08-30T03:43:51;99316.58;;;14.05;77.44
65394;BME280;52002;49.760;6.512;2023-08-30T03:46:16;99319.77;;;14.04;77.33
65394;BME280;52002;49.760;6.512;2023-08-30T03:48:41;99321.83;;;14.01;77.30
65394;BME280;52002;49.760;6.512;2023-08-30T03:51:07;99322.59;;;13.99;77.36
65394;BME280;52002;49.760;6.512;2023-08-30T03:53:32;99323.42;;;14.00;77.32
65394;BME280;52002;49.760;6.512;2023-08-30T03:55:58;99324.84;;;13.99;77.23
65394;BME280;52002;49.760;6.512;2023-08-30T03:58:24;99321.38;;;13.98;77.26
65394;BME280;52002;49.760;6.512;2023-08-30T04:00:50;99323.30;;;13.96;77.27
65394;BME280;52002;49.760;6.512;2023-08-30T04:03:15;99320.73;;;13.95;77.10
65394;BME280;52002;49.760;6.512;2023-08-30T04:05:41;99315.84;;;13.93;77.17
65394;BME280;52002;49.760;6.512;2023-08-30T04:08:08;99316.91;;;13.93;77.29
65394;BME280;52002;49.760;6.512;2023-08-30T04:10:40;99314.30;;;13.92;77.38
65394;BME280;52002;49.760;6.512;2023-08-30T04:13:07;99308.94;;;13.92;77.36
65394;BME280;52002;49.760;6.512;2023-08-30T04:15:34;99303.67;;;13.91;77.39
65394;BME280;52002;49.760;6.512;2023-08-30T04:18:01;99304.11;;;13.90;77.32
65394;BME280;52002;49.760;6.512;2023-08-30T04:20:26;99299.27;;;13.89;77.38
65394;BME280;52002;49.760;6.512;2023-08-30T04:22:52;99295.89;;;13.90;77.33
65394;BME280;52002;49.760;6.512;2023-08-30T04:25:18;99292.88;;;13.90;77.30
65394;BME280;52002;49.760;6.512;2023-08-30T04:27:43;99293.05;;;13.89;77.37
65394;BME280;52002;49.760;6.512;2023-08-30T04:30:10;99296.95;;;13.84;77.10
65394;BME280;52002;49.760;6.512;2023-08-30T04:32:35;99295.14;;;13.81;77.38
65394;BME280;52002;49.760;6.512;2023-08-30T04:35:01;99299.20;;;13.82;77.57
65394;BME280;52002;49.760;6.512;2023-08-30T04:37:29;99304.82;;;13.83;77.71
65394;BME280;52002;49.760;6.512;2023-08-30T04:39:56;99302.15;;;13.84;77.92
65394;BME280;52002;49.760;6.512;2023-08-30T04:42:22;99299.16;;;13.87;77.86
65394;BME280;52002;49.760;6.512;2023-08-30T04:44:47;99292.01;;;13.87;77.79
65394;BME280;52002;49.760;6.512;2023-08-30T04:47:12;99295.80;;;13.86;77.70
65394;BME280;52002;49.760;6.512;2023-08-30T04:49:38;99295.66;;;13.83;77.50
65394;BME280;52002;49.760;6.512;2023-08-30T04:52:04;99298.45;;;13.79;77.51
65394;BME280;52002;49.760;6.512;2023-08-30T04:54:29;99302.54;;;13.76;77.69
65394;BME280;52002;49.760;6.512;2023-08-30T04:56:55;99306.52;;;13.75;77.72
65394;BME280;52002;49.760;6.512;2023-08-30T04:59:20;99307.08;;;13.73;77.78
65394;BME280;52002;49.760;6.512;2023-08-30T05:01:45;99305.02;;;13.76;78.07
65394;BME280;52002;49.760;6.512;2023-08-30T05:04:11;99298.20;;;13.79;78.26
65394;BME280;52002;49.760;6.512;2023-08-30T05:06:36;99299.16;;;13.82;78.12
65394;BME280;52002;49.760;6.512;2023-08-30T05:09:02;99298.20;;;13.82;78.05
65394;BME280;52002;49.760;6.512;2023-08-30T05:11:27;99301.69;;;13.84;78.06
65394;BME280;52002;49.760;6.512;2023-08-30T05:13:54;99303.19;;;13.83;78.00
65394;BME280;52002;49.760;6.512;2023-08-30T05:16:20;99304.58;;;13.83;77.93
65394;BME280;52002;49.760;6.512;2023-08-30T05:18:45;99304.60;;;13.81;77.97
65394;BME280;52002;49.760;6.512;2023-08-30T05:21:13;99301.35;;;13.80;77.98
65394;BME280;52002;49.760;6.512;2023-08-30T05:23:38;99300.27;;;13.80;78.10
65394;BME280;52002;49.760;6.512;2023-08-30T05:26:07;99296.56;;;13.79;78.05
65394;BME280;52002;49.760;6.512;2023-08-30T05:28:32;99299.14;;;13.79;78.06
65394;BME280;52002;49.760;6.512;2023-08-30T05:30:57;99296.61;;;13.81;78.19
65394;BME280;52002;49.760;6.512;2023-08-30T05:33:23;99297.61;;;13.83;78.09
65394;BME280;52002;49.760;6.512;2023-08-30T05:35:48;99300.27;;;13.85;78.13
65394;BME280;52002;49.760;6.512;2023-08-30T05:38:13;99295.54;;;13.87;78.21
65394;BME280;52002;49.760;6.512;2023-08-30T05:40:39;99294.16;;;13.87;78.09
65394;BME280;52002;49.760;6.512;2023-08-30T05:43:07;99298.18;;;13.89;78.14
65394;BME280;52002;49.760;6.512;2023-08-30T05:45:33;99295.42;;;13.90;78.17
65394;BME280;52002;49.760;6.512;2023-08-30T05:47:58;99296.73;;;13.91;78.21
65394;BME280;52002;49.760;6.512;2023-08-30T05:50:23;99298.60;;;13.92;78.22
65394;BME280;52002;49.760;6.512;2023-08-30T05:52:49;99295.77;;;13.93;78.21
65394;BME280;52002;49.760;6.512;2023-08-30T05:55:14;99294.86;;;13.93;78.17
65394;BME280;52002;49.760;6.512;2023-08-30T05:57:39;99294.39;;;13.94;78.08
65394;BME280;52002;49.760;6.512;2023-08-30T06:00:05;99295.14;;;13.94;77.94
65394;BME280;52002;49.760;6.512;2023-08-30T06:02:31;99295.17;;;13.92;78.06
65394;BME280;52002;49.760;6.512;2023-08-30T06:04:56;99297.23;;;13.96;78.24
65394;BME280;52002;49.760;6.512;2023-08-30T06:07:21;99293.23;;;14.00;78.24
65394;BME280;52002;49.760;6.512;2023-08-30T06:09:47;99297.06;;;14.02;78.03
65394;BME280;52002;49.760;6.512;2023-08-30T06:12:12;99293.64;;;14.02;77.93
65394;BME280;52002;49.760;6.512;2023-08-30T06:14:38;99291.19;;;14.03;78.08
65394;BME280;52002;49.760;6.512;2023-08-30T06:17:03;99288.42;;;14.05;78.03
65394;BME280;52002;49.760;6.512;2023-08-30T06:19:29;99289.05;;;14.08;77.98
65394;BME280;52002;49.760;6.512;2023-08-30T06:21:54;99289.20;;;14.09;78.07
65394;BME280;52002;49.760;6.512;2023-08-30T06:24:19;99291.24;;;14.10;77.86
65394;BME280;52002;49.760;6.512;2023-08-30T06:26:44;99292.13;;;14.09;77.65
65394;BME280;52002;49.760;6.512;2023-08-30T06:29:10;99293.58;;;14.09;77.70
65394;BME280;52002;49.760;6.512;2023-08-30T06:31:35;99290.44;;;14.11;77.75
65394;BME280;52002;49.760;6.512;2023-08-30T06:34:00;99291.64;;;14.14;77.63
65394;BME280;52002;49.760;6.512;2023-08-30T06:36:26;99289.19;;;14.18;77.84
65394;BME280;52002;49.760;6.512;2023-08-30T06:38:51;99290.98;;;14.25;77.78
65394;BME280;52002;49.760;6.512;2023-08-30T06:41:16;99291.95;;;14.28;77.52
65394;BME280;52002;49.760;6.512;2023-08-30T06:43:42;99298.29;;;14.34;77.48
65394;BME280;52002;49.760;6.512;2023-08-30T06:46:07;99299.52;;;14.36;77.51
65394;BME280;52002;49.760;6.512;2023-08-30T06:48:32;99292.88;;;14.38;77.25
65394;BME280;52002;49.760;6.512;2023-08-30T06:50:58;99296.83;;;14.40;77.25
65394;BME280;52002;49.760;6.512;2023-08-30T06:53:26;99297.91;;;14.45;77.07
65394;BME280;52002;49.760;6.512;2023-08-30T06:56:01;99300.69;;;14.48;77.18
65394;BME280;52002;49.760;6.512;2023-08-30T06:58:27;99299.33;;;14.56;77.11
65394;BME280;52002;49.760;6.512;2023-08-30T07:00:53;99298.92;;;14.64;76.97
65394;BME280;52002;49.760;6.512;2023-08-30T07:03:18;99295.53;;;14.73;76.99
65394;BME280;52002;49.760;6.512;2023-08-30T07:05:44;99293.33;;;14.86;76.61
65394;BME280;52002;49.760;6.512;2023-08-30T07:08:09;99283.48;;;14.95;76.41
65394;BME280;52002;49.760;6.512;2023-08-30T07:10:35;99283.50;;;15.05;76.32
65394;BME280;52002;49.760;6.512;2023-08-30T07:13:00;99286.80;;;15.18;76.03
65394;BME280;52002;49.760;6.512;2023-08-30T07:15:26;99287.83;;;15.24;75.68
65394;BME280;52002;49.760;6.512;2023-08-30T07:17:51;99291.79;;;15.35;75.63
65394;BME280;52002;49.760;6.512;2023-08-30T07:20:17;99286.48;;;15.43;75.25
65394;BME280;52002;49.760;6.512;2023-08-30T07:22:42;99290.65;;;15.51;74.87
65394;BME280;52002;49.760;6.512;2023-08-30T07:25:08;99293.33;;;15.56;74.78
65394;BME280;52002;49.760;6.512;2023-08-30T07:27:36;99291.95;;;15.62;74.81
65394;BME280;52002;49.760;6.512;2023-08-30T07:30:01;99290.39;;;15.69;74.39
65394;BME280;52002;49.760;6.512;2023-08-30T07:32:27;99290.68;;;15.74;74.35
65394;BME280;52002;49.760;6.512;2023-08-30T07:34:52;99291.05;;;15.83;74.33
65394;BME280;52002;49.760;6.512;2023-08-30T07:37:21;99288.79;;;15.88;73.91
65394;BME280;52002;49.760;6.512;2023-08-30T07:39:47;99287.34;;;15.93;73.95
65394;BME280;52002;49.760;6.512;2023-08-30T07:42:14;99286.02;;;16.00;73.77
65394;BME280;52002;49.760;6.512;2023-08-30T07:44:40;99285.40;;;16.09;73.58
65394;BME280;52002;49.760;6.512;2023-08-30T07:47:05;99281.99;;;16.19;73.56
65394;BME280;52002;49.760;6.512;2023-08-30T07:49:31;99283.59;;;16.33;73.21
65394;BME280;52002;49.760;6.512;2023-08-30T07:51:56;99285.55;;;16.38;72.66
65394;BME280;52002;49.760;6.512;2023-08-30T07:54:21;99284.84;;;16.43;72.74
65394;BME280;52002;49.760;6.512;2023-08-30T07:56:46;99289.80;;;16.54;72.49
65394;BME280;52002;49.760;6.512;2023-08-30T07:59:12;99289.11;;;16.70;72.14
65394;BME280;52002;49.760;6.512;2023-08-30T08:01:37;99295.00;;;16.76;71.80
65394;BME280;52002;49.760;6.512;2023-08-30T08:04:03;99295.66;;;16.90;71.55
65394;BME280;52002;49.760;6.512;2023-08-30T08:06:28;99301.73;;;17.06;71.36
65394;BME280;52002;49.760;6.512;2023-08-30T08:08:53;99303.70;;;17.27;71.03
65394;BME280;52002;49.760;6.512;2023-08-30T08:11:19;99303.98;;;17.73;70.55
65394;BME280;52002;49.760;6.512;2023-08-30T08:13:44;99306.33;;;18.13;69.78
65394;BME280;52002;49.760;6.512;2023-08-30T08:16:10;99302.63;;;19.07;68.00
65394;BME280;52002;49.760;6.512;2023-08-30T08:18:35;99297.07;;;19.97;66.64
65394;BME280;52002;49.760;6.512;2023-08-30T08:21:00;99296.02;;;20.44;65.41
65394;BME280;52002;49.760;6.512;2023-08-30T08:23:26;99288.54;;;20.82;64.83
65394;BME280;52002;49.760;6.512;2023-08-30T08:25:57;99287.29;;;20.91;63.76
65394;BME280;52002;49.760;6.512;2023-08-30T08:28:23;99286.05;;;20.87;63.05
65394;BME280;52002;49.760;6.512;2023-08-30T08:30:48;99287.92;;;21.05;62.92
65394;BME280;52002;49.760;6.512;2023-08-30T08:33:19;99287.20;;;21.29;62.29
65394;BME280;52002;49.760;6.512;2023-08-30T08:35:48;99281.70;;;21.39;61.89
65394;BME280;52002;49.760;6.512;2023-08-30T08:38:13;99281.70;;;21.43;61.25
65394;BME280;52002;49.760;6.512;2023-08-30T08:40:39;99283.86;;;21.45;60.95
65394;BME280;52002;49.760;6.512;2023-08-30T08:43:05;99278.70;;;21.47;60.71
65394;BME280;52002;49.760;6.512;2023-08-30T08:45:34;99273.04;;;21.41;60.49
65394;BME280;52002;49.760;6.512;2023-08-30T08:48:03;99271.15;;;21.33;60.28
65394;BME280;52002;49.760;6.512;2023-08-30T08:50:29;99272.52;;;21.39;60.55
65394;BME280;52002;49.760;6.512;2023-08-30T08:52:55;99271.41;;;21.49;60.05
65394;BME280;52002;49.760;6.512;2023-08-30T08:55:21;99273.06;;;21.53;59.92
65394;BME280;52002;49.760;6.512;2023-08-30T08:57:48;99275.70;;;21.54;59.73
65394;BME280;52002;49.760;6.512;2023-08-30T09:00:13;99274.48;;;21.58;59.56
65394;BME280;52002;49.760;6.512;2023-08-30T09:02:40;99275.91;;;21.65;59.13
65394;BME280;52002;49.760;6.512;2023-08-30T09:05:07;99274.27;;;21.73;59.01
65394;BME280;52002;49.760;6.512;2023-08-30T09:07:33;99276.38;;;21.94;58.82
65394;BME280;52002;49.760;6.512;2023-08-30T09:09:59;99276.02;;;22.25;58.48
65394;BME280;52002;49.760;6.512;2023-08-30T09:12:24;99274.02;;;22.48;58.06
65394;BME280;52002;49.760;6.512;2023-08-30T09:14:54;99268.33;;;22.62;57.33
65394;BME280;52002;49.760;6.512;2023-08-30T09:17:20;99265.02;;;22.71;57.13
65394;BME280;52002;49.760;6.512;2023-08-30T09:19:46;99260.23;;;22.81;56.75
65394;BME280;52002;49.760;6.512;2023-08-30T09:22:11;99261.85;;;22.89;56.28
65394;BME280;52002;49.760;6.512;2023-08-30T09:24:38;99264.23;;;23.02;56.19
65394;BME280;52002;49.760;6.512;2023-08-30T09:27:05;99265.40;;;22.94;55.60
65394;BME280;52002;49.760;6.512;2023-08-30T09:29:30;99264.77;;;22.64;55.49
65394;BME280;52002;49.760;6.512;2023-08-30T09:31:57;99255.84;;;22.31;56.06
65394;BME280;52002;49.760;6.512;2023-08-30T09:34:25;99249.85;;;22.10;56.26
65394;BME280;52002;49.760;6.512;2023-08-30T09:36:52;99247.71;;;21.85;56.51
65394;BME280;52002;49.760;6.512;2023-08-30T09:39:17;99240.41;;;21.63;56.77
65394;BME280;52002;49.760;6.512;2023-08-30T09:41:47;99238.44;;;21.49;57.31
65394;BME280;52002;49.760;6.512;2023-08-30T09:44:18;99236.13;;;21.43;57.35
65394;BME280;52002;49.760;6.512;2023-08-30T09:46:51;99233.02;;;21.37;57.59
65394;BME280;52002;49.760;6.512;2023-08-30T09:49:24;99234.63;;;21.38;57.72
65394;BME280;52002;49.760;6.512;2023-08-30T09:51:51;99234.13;;;21.53;57.79
65394;BME280;52002;49.760;6.512;2023-08-30T09:54:23;99232.77;;;21.71;57.50
65394;BME280;52002;49.760;6.512;2023-08-30T09:56:49;99231.20;;;21.87;57.22
65394;BME280;52002;49.760;6.512;2023-08-30T09:59:18;99229.75;;;22.05;57.17
65394;BME280;52002;49.760;6.512;2023-08-30T10:01:47;99230.54;;;22.26;56.94
65394;BME280;52002;49.760;6.512;2023-08-30T10:04:20;99232.66;;;22.40;56.32
65394;BME280;52002;49.760;6.512;2023-08-30T10:06:46;99227.59;;;22.41;56.01
65394;BME280;52002;49.760;6.512;2023-08-30T10:09:12;99224.15;;;22.41;55.98
65394;BME280;52002;49.760;6.512;2023-08-30T10:11:38;99222.88;;;22.37;56.03
65394;BME280;52002;49.760;6.512;2023-08-30T10:14:05;99213.88;;;22.21;56.16
65394;BME280;52002;49.760;6.512;2023-08-30T10:16:37;99216.80;;;22.05;56.57
65394;BME280;52002;49.760;6.512;2023-08-30T10:19:10;99218.61;;;22.01;56.73
65394;BME280;52002;49.760;6.512;2023-08-30T10:21:36;99213.06;;;22.09;56.43
65394;BME280;52002;49.760;6.512;2023-08-30T10:24:05;99209.05;;;22.11;56.24
65394;BME280;52002;49.760;6.512;2023-08-30T10:26:32;99208.09;;;22.08;56.31
65394;BME280;52002;49.760;6.512;2023-08-30T10:28:59;99198.46;;;21.88;56.59
65394;BME280;52002;49.760;6.512;2023-08-30T10:31:25;99194.85;;;21.58;56.46
65394;BME280;52002;49.760;6.512;2023-08-30T10:33:55;99186.56;;;21.28;57.22
65394;BME280;52002;49.760;6.512;2023-08-30T10:36:25;99181.73;;;20.99;57.51
65394;BME280;52002;49.760;6.512;2023-08-30T10:38:52;99180.03;;;20.68;58.00
65394;BME280;52002;49.760;6.512;2023-08-30T10:41:23;99182.18;;;20.37;58.23
65394;BME280;52002;49.760;6.512;2023-08-30T10:43:50;99184.83;;;20.05;58.92
65394;BME280;52002;49.760;6.512;2023-08-30T10:46:17;99183.73;;;19.78;59.43
65394;BME280;52002;49.760;6.512;2023-08-30T10:48:43;99187.14;;;19.52;60.03
65394;BME280;52002;49.760;6.512;2023-08-30T10:51:34;99191.11;;;19.31;60.67
65394;BME280;52002;49.760;6.512;2023-08-30T10:54:00;99194.30;;;19.12;61.45
65394;BME280;52002;49.760;6.512;2023-08-30T10:56:29;99192.44;;;19.05;61.79
65394;BME280;52002;49.760;6.512;2023-08-30T10:58:56;99196.10;;;19.06;61.99
65394;BME280;52002;49.760;6.512;2023-08-30T11:01:22;99189.73;;;19.07;61.76
65394;BME280;52002;49.760;6.512;2023-08-30T11:03:49;99190.60;;;19.10;61.79
65394;BME280;52002;49.760;6.512;2023-08-30T11:06:16;99187.85;;;19.18;61.47
65394;BME280;52002;49.760;6.512;2023-08-30T11:08:43;99181.15;;;19.32;61.17
65394;BME280;52002;49.760;6.512;2023-08-30T11:11:10;99181.11;;;19.51;60.77
65394;BME280;52002;49.760;6.512;2023-08-30T11:13:37;99180.16;;;19.91;60.59
65394;BME280;52002;49.760;6.512;2023-08-30T11:16:03;99181.31;;;20.30;60.00
65394;BME280;52002;49.760;6.512;2023-08-30T11:18:36;99178.34;;;20.57;59.14
65394;BME280;52002;49.760;6.512;2023-08-30T11:21:04;99169.74;;;20.82;58.49
65394;BME280;52002;49.760;6.512;2023-08-30T11:23:30;99176.40;;;21.07;57.74
65394;BME280;52002;49.760;6.512;2023-08-30T11:25:55;99174.57;;;21.28;57.48
65394;BME280;52002;49.760;6.512;2023-08-30T11:28:26;99171.98;;;21.46;56.98
65394;BME280;52002;49.760;6.512;2023-08-30T11:30:55;99175.42;;;21.64;56.82
65394;BME280;52002;49.760;6.512;2023-08-30T11:33:21;99174.55;;;21.84;56.44
65394;BME280;52002;49.760;6.512;2023-08-30T11:35:49;99167.09;;;22.07;55.41
65394;BME280;52002;49.760;6.512;2023-08-30T11:38:17;99167.03;;;22.37;54.88
65394;BME280;52002;49.760;6.512;2023-08-30T11:40:43;99164.86;;;22.58;54.34
65394;BME280;52002;49.760;6.512;2023-08-30T11:43:09;99157.27;;;22.64;53.86
65394;BME280;52002;49.760;6.512;2023-08-30T11:45:35;99158.39;;;22.63;53.42
65394;BME280;52002;49.760;6.512;2023-08-30T11:48:01;99158.35;;;22.58;53.18
65394;BME280;52002;49.760;6.512;2023-08-30T11:50:27;99162.38;;;22.58;53.35
65394;BME280;52002;49.760;6.512;2023-08-30T11:52:53;99159.70;;;22.60;53.17
65394;BME280;52002;49.760;6.512;2023-08-30T11:55:20;99158.03;;;22.51;52.98
65394;BME280;52002;49.760;6.512;2023-08-30T11:57:48;99159.23;;;22.37;52.86
65394;BME280;52002;49.760;6.512;2023-08-30T12:00:17;99157.89;;;22.28;53.12
65394;BME280;52002;49.760;6.512;2023-08-30T12:02:43;99155.73;;;22.07;52.83
65394;BME280;52002;49.760;6.512;2023-08-30T12:05:11;99157.27;;;21.82;52.92
65394;BME280;52002;49.760;6.512;2023-08-30T12:07:37;99155.09;;;21.54;52.99
65394;BME280;52002;49.760;6.512;2023-08-30T12:10:20;99151.45;;;21.24;53.34
65394;BME280;52002;49.760;6.512;2023-08-30T12:12:46;99147.36;;;21.13;53.83
65394;BME280;52002;49.760;6.512;2023-08-30T12:15:12;99146.91;;;21.16;54.11
65394;BME280;52002;49.760;6.512;2023-08-30T12:17:37;99146.28;;;21.19;54.04
65394;BME280;52002;49.760;6.512;2023-08-30T12:20:03;99147.73;;;21.17;53.94
65394;BME280;52002;49.760;6.512;2023-08-30T12:22:39;99147.55;;;21.08;54.27
65394;BME280;52002;49.760;6.512;2023-08-30T12:25:21;99147.20;;;20.91;54.47
65394;BME280;52002;49.760;6.512;2023-08-30T12:27:48;99140.67;;;20.80;54.68
65394;BME280;52002;49.760;6.512;2023-08-30T12:30:14;99139.68;;;20.74;55.12
65394;BME280;52002;49.760;6.512;2023-08-30T12:32:42;99135.77;;;20.68;55.25
65394;BME280;52002;49.760;6.512;2023-08-30T12:35:08;99136.71;;;20.65;55.27
65394;BME280;52002;49.760;6.512;2023-08-30T12:37:34;99132.91;;;20.60;55.55
65394;BME280;52002;49.760;6.512;2023-08-30T12:40:00;99132.34;;;20.50;55.95
65394;BME280;52002;49.760;6.512;2023-08-30T12:42:25;99132.55;;;20.42;56.18
65394;BME280;52002;49.760;6.512;2023-08-30T12:44:51;99137.17;;;20.47;56.49
65394;BME280;52002;49.760;6.512;2023-08-30T12:47:17;99139.69;;;20.68;56.76
65394;BME280;52002;49.760;6.512;2023-08-30T12:49:42;99135.87;;;20.76;56.24
65394;BME280;52002;49.760;6.512;2023-08-30T12:52:07;99140.01;;;20.61;55.86
65394;BME280;52002;49.760;6.512;2023-08-30T12:54:33;99142.80;;;20.43;56.08
65394;BME280;52002;49.760;6.512;2023-08-30T12:56:58;99147.74;;;20.26;56.45
65394;BME280;52002;49.760;6.512;2023-08-30T12:59:23;99156.83;;;20.15;56.93